Aeroporto :
LOGIN :

Iscrizione | Disclaimer

   EN    FR    IT 

 










Sommario :    VFR   VFR Marginale   IFR   IFR Intensivo   IFR Molto Intensivo
Visibilità : 
Base nubi : 
>= 8 km
>= 3000ft
5 / 8 km
1000 / 3000 ft
1500m / 5 km
500 / 1000 ft
800 / 1500m
200 / 500 ft
< 800m
< 200 ft
Simboli :   Temporali  Nebbia  Neve Forte  Precipitazioni Forti  Vento > 20 kt
SIGMETs :   Varie  Temporali  Ghiacco  Turbolenza  Onda orograficha  Ceneri Vulcaniche






- Altitudine del aeroporto : 1260 ft
- Codice IATA : LDE


LFBT - Tarbes / Ossun

ULTIMO METAR :
  • 251230Z AUTO 04005KT 2700 DZ BR OVC004 06/06 Q1010 TEMPO 3000 RA BKN005

METARs OBSOLETI :
  • 251200Z AUTO 02007KT 3800 -DZ BR BKN005 OVC010 06/06 Q1010 TEMPO RA
  • 251130Z AUTO 01010KT 2300 -RA BR BKN005 OVC013 06/06 Q1010 TEMPO 3000 RA
  • 251100Z AUTO 04003KT 3000 -RA BR OVC006/// ///TCU 07/07 Q1010 TEMPO RA BKN006 BECMG 24010KT
  • 251030Z AUTO VRB01KT 6000 -RA BKN006/// OVC029/// ///TCU 07/07 Q1010 TEMPO 4000 RA BKN006
  • 251000Z AUTO VRB02KT 3700 -RA BR BKN005/// BKN009/// OVC025/// ///TCU 07/07 Q1010 TEMPO RA BKN006

TAF AMD TAF LFBT
Valido dal 25 a 12 ore il 26 a 12 ore UTC


251241Z 2512/2612 VRB03KT 9999 BKN040
TEMPO 2512/2522 3000 RA BKN004
BECMG 2522/2524 CAVOK
PROB30 2600/2606 3000 BR



MetMap, La meteo Aeronautica in un colpo d'occhio ! - Copyright ORBIFLY Dicembre 2007 - Disclaimer

ORBIFLY MET'MAP TEAM :

Programmazione e sviluppo : Alexandra Zaïnal
Concezione : Baudouin d'Aumeries
Aiuto per la programmazione : Marc-Olivier Méhu
Supporto tecnico e logistico : Manuel Goepfert
Aiuto per la traduzione : Arnaldo La Scala

Contatto : metmap@orbifly.com




FONTI E CREDITI :

   NOAA